Aviation Digital Data Service (ADDS)

Output produced by METARs form (0722 UTC 03 August 2021)
found at http://www.aviationweather.gov/metar/data/
 
KSEG 030653Z AUTO 31003KT 10SM OVC080 14/13 A3013 RMK AO2 SLP199 T01390133
KSEG 030553Z AUTO 00000KT 10SM BKN080 13/13 A3012 RMK AO2 SLP200 T01330128 10200 20122 50009
KSEG 030453Z AUTO 34003KT 10SM CLR 12/12 A3013 RMK AO2 SLP200 T01220117 402560122
KSEG 030353Z AUTO 30003KT 10SM CLR 13/13 A3012 RMK AO2 SLP198 T01330128
KSEG 030253Z AUTO 00000KT 10SM CLR 13/13 A3010 RMK AO2 SLP190 T01330128 51013
KSEG 030153Z AUTO 00000KT 10SM CLR 15/14 A3009 RMK AO2 SLP188 T01500144
KSEG 030053Z AUTO 00000KT 10SM CLR 16/14 A3007 RMK AO2 SLP182 T01610144
KSEG 022353Z AUTO 00000KT 10SM CLR 20/15 A3006 RMK AO2 SLP178 T02000150 10256 20200 53006
KSEG 022253Z AUTO 33004KT 10SM CLR 24/12 A3005 RMK AO2 SLP174 T02390122
KSEG 022153Z AUTO 31004KT 10SM CLR 25/11 A3004 RMK AO2 SLP171 T02500106
KSEG 022053Z AUTO 32006KT 10SM SCT065 BKN080 25/12 A3004 RMK AO2 SLP170 T02500117 55003
KSEG 021953Z AUTO 34005KT 10SM FEW060 25/13 A3004 RMK AO2 SLP170 T02500133
KSEG 021853Z AUTO 00000KT 10SM FEW065 24/13 A3004 RMK AO2 SLP171 T02440133
KSEG 021753Z AUTO VRB06KT 10SM CLR 24/14 A3005 RMK AO2 SLP173 T02440144 10244 20172 58005
KSEG 021653Z AUTO 30006KT 10SM SCT045 SCT055 23/14 A3006 RMK AO2 SLP177 T02280144 $
KSEG 021553Z AUTO 31007G16KT 10SM SCT040 SCT049 22/14 A3007 RMK AO2 SLP179 T02170139 $
KSEG 021453Z AUTO 33009KT 10SM BKN038 BKN045 21/14 A3006 RMK AO2 SLP179 T02060139 51016 $
KSEG 021353Z AUTO 35008KT 10SM FEW027 SCT033 20/14 A3005 RMK AO2 SLP174 T02000144 $
KSEG 021253Z AUTO 29006KT 10SM OVC035 19/14 A3004 RMK AO2 SLP170 T01890144 $
KSEG 021153Z AUTO 30006KT 10SM CLR 17/14 A3002 RMK AO2 SLP163 70032 T01720144 10172 20122 53013
KSEG 021053Z AUTO 36003KT 5SM BR FEW028 13/13 A3000 RMK AO2 SLP158 T01330133
KSEG 021038Z AUTO 00000KT 4SM BR SCT028 13/13 A3000 RMK AO2 T01280128
KSEG 021031Z AUTO 00000KT 2SM BR FEW028 13/13 A3000 RMK AO2 T01280128
KSEG 021021Z AUTO 00000KT 1SM BR CLR 13/13 A2999 RMK AO2 T01280128
KSEG 021016Z AUTO 00000KT 2 1/2SM BR CLR 13/13 A2999 RMK AO2 T01280128
KSEG 020953Z AUTO 00000KT 4SM BR CLR 13/13 A2998 RMK AO2 SLP151 T01330128
KSEG 020950Z AUTO 00000KT 4SM BR CLR 13/13 A2998 RMK AO2
KSEG 020933Z AUTO 00000KT 2SM BR SCT002 13/13 A2997 RMK AO2 VIS 1 1/4V4 T01330128
KSEG 020916Z AUTO 00000KT 1/2SM FG VV002 13/13 A2996 RMK AO2 T01280128
KSEG 020909Z AUTO 00000KT 1SM BR VV002 13/13 A2996 RMK AO2 VIS 1/4V3 T01330133
KSEG 020859Z AUTO 00000KT 2SM BR SCT002 14/13 A2996 RMK AO2 VIS 1V3 T01390133
KSEG 020853Z AUTO 00000KT 1SM BR VV002 13/13 A2996 RMK AO2 SLP141 T01330133 51009
KSEG 020837Z AUTO 00000KT 1/4SM FG VV001 14/14 A2995 RMK AO2 T01390139
KSEG 020753Z AUTO 00000KT 3/4SM BR OVC001 14/14 A2994 RMK AO2 SLP135 T01440144
KSEG 020751Z AUTO 00000KT 3/4SM BR OVC001 14/14 A2994 RMK AO2
KSEG 020747Z AUTO 00000KT 1 3/4SM BR OVC002 14/14 A2994 RMK AO2
KSEG 020732Z AUTO 04003KT 3SM BR OVC002 14/14 A2993 RMK AO2 T01440144
KSEG 020712Z AUTO 36003KT 1 1/4SM BR OVC002 14/14 A2994 RMK AO2 T01440144
KSEG 020653Z AUTO 00000KT 1/2SM FG VV002 14/14 A2993 RMK AO2 SLP132 T01440144
KSEG 020618Z AUTO 34003KT 1/2SM FG VV002 15/15 A2993 RMK AO2 T01500150
KSEG 020553Z AUTO 00000KT 1/4SM FG VV002 14/14 A2993 RMK AO2 SLP131 T01440144 10172 20139 57000
KSEG 020507Z AUTO 00000KT 1/4SM FG VV002 14/14 A2993 RMK AO2 T01440144
KSEG 020453Z AUTO 00000KT 1/2SM FG VV002 14/14 A2993 RMK AO2 SLP132 T01440144 402560139
KSEG 020409Z AUTO 00000KT 3/4SM BR VV001 14/14 A2993 RMK AO2 T01440139
KSEG 020356Z AUTO 00000KT 1 1/4SM BR OVC001 14/14 A2992 RMK AO2 VIS 1/2V2 1/2 T01440144
KSEG 020353Z AUTO 00000KT 3/4SM BR BKN001 14/14 A2992 RMK AO2 SLP132 T01440144
KSEG 020346Z AUTO 00000KT 3/4SM BR BKN001 15/14 A2992 RMK AO2 T01500144
KSEG 020341Z AUTO 00000KT 1 3/4SM BR BKN002 14/14 A2992 RMK AO2 T01440144
KSEG 020339Z AUTO 00000KT 3SM BR BKN002 14/14 A2992 RMK AO2 T01440144
KSEG 020328Z AUTO 00000KT 3SM BR SCT002 15/14 A2992 RMK AO2 T01500144
KSEG 020325Z AUTO 00000KT 1 1/2SM BR SCT002 15/14 A2992 RMK AO2 T01500144
KSEG 020311Z AUTO 00000KT 3/4SM BR VV002 14/14 A2993 RMK AO2 VIS 1/4V3 T01440144
KSEG 020303Z AUTO 00000KT 1 1/4SM BR SCT002 15/14 A2993 RMK AO2 T01500144
KSEG 020253Z AUTO 00000KT 1/2SM FG VV002 14/14 A2993 RMK AO2 SLP132 T01440144 51016
KSEG 020250Z AUTO 00000KT 3/4SM BR VV002 14/14 A2993 RMK AO2
KSEG 020243Z AUTO 00000KT 1 1/4SM BR FEW002 16/15 A2993 RMK AO2 VIS 1/2V2 1/2 T01560150
KSEG 020235Z AUTO 00000KT 3/4SM BR VV002 15/14 A2993 RMK AO2 T01500144
KSEG 020230Z AUTO 00000KT 1 3/4SM BR FEW002 15/15 A2992 RMK AO2 VIS 1/2V5 T01500150
KSEG 020216Z AUTO 00000KT 6SM BR FEW002 16/15 A2992 RMK AO2 T01560150
KSEG 020153Z AUTO 35003KT 7SM FEW120 16/15 A2992 RMK AO2 SLP129 T01560150
KSEG 020053Z AUTO 00000KT 9SM SCT110 17/16 A2990 RMK AO2 SLP123 T01670161
KSEG 020009Z AUTO 00000KT 9SM SCT012 17/16 A2988 RMK AO2 T01720161
KSEG 012353Z AUTO 00000KT 10SM BKN013 BKN100 17/16 A2988 RMK AO2 RAE03 SLP116 P0000 60032 T01720161 10256 20167 51026
KSEG 012253Z AUTO 00000KT 8SM -RA FEW075 OVC100 17/16 A2986 RMK AO2 LTG DSNT SE AND S TSB03E24 SLP109 P0015 T01720156
KSEG 012241Z AUTO 07003KT 6SM -RA BR SCT070 OVC100 17/16 A2985 RMK AO2 LTG DSNT SE AND S TSB03E24 P0014 T01720156
KSEG 012224Z AUTO 00000KT 3SM VCTS RA BR OVC070 17/16 A2987 RMK AO2 LTG DSNT SE-SW TSB03E24 P0012 T01670156
KSEG 012214Z AUTO 00000KT 2 1/2SM TSRA BR FEW038 SCT050 OVC070 17/16 A2987 RMK AO2 LTG DSNT S AND SW TSB03 P0010 T01670156
KSEG 012206Z AUTO 34006G23KT 3SM TSRA BR SCT040 BKN050 OVC065 17/15 A2986 RMK AO2 LTG DSNT SW TSB03 P0008 T01670150
KSEG 012203Z AUTO 34008G24KT 1 3/4SM TSRA SCT040 BKN050 OVC060 17/14 A2986 RMK AO2 TSB03 P0007 T01720144
KSEG 012156Z AUTO 33016G29KT 1SM VCTS +RA FEW023 SCT042 BKN049 17/14 A2985 RMK AO2 LTG DSNT NE AND W P0005 T01720139
KSEG 012153Z AUTO 33021G29KT 1 1/4SM +RA FEW023 SCT042 BKN049 18/14 A2985 RMK AO2 PK WND 33029/2149 WSHFT 2136 LTG DSNT NE AND W RAB49 SLP109 P0017 T01830139
KSEG 012053Z AUTO 16007KT 10SM FEW065 26/17 A2980 RMK AO2 LTG DSNT SE AND NW SLP088 T02560167 56016
KSEG 011953Z AUTO 16008KT 10SM SCT050 25/17 A2980 RMK AO2 SLP089 T02500172